Current Conditions
Partly Cloudy
Conditions




Pressure
1017.92 (hPa) - 30.06 (inHG)
Visibility

10.0 (km) - 6.2 (miles)
   Temperature
11  °C
52°F
8  °C
Dewpoint
82  %
 Humidity
   Wind Speed
16  km/h
9  kts
10  mph
4.5  m/s
   Wind Direction
 220°
South West
   Airport Data
LTBA
Location Atatürk International 10 km (6.22 mi)
Metar :LTBA 080650Z 22009KT 9999 FEW011 BKN021 11/08 Q1018 NOSIG RMK RWY17L 22009KT RWY05 21008KT RWY23 23010KT
Sun 8th December 09:50 am
   Raw Metar Info
Raw METAR is the most common format in the world for the transmission of observational weather data. It is highly standardized through the International Civil Aviation Organization (ICAO), which allows it to be understood throughout most of the world.
   API Info
Data Provided by
https://www.checkwx.com/weather/
   © Info
CSS/SVG/PHP scripts were developed by weather34.com for use in the weather34 template © 2015-2019

Guide Info provided by Metar-Wikipedia